sensor_id;sensor_type;location;lat;lon;timestamp;P1;durP1;ratioP1;P2;durP2;ratioP2
317;SDS011;146;53.448;10.228;2023-07-29T00:01:18;7.97;;;4.97;;
317;SDS011;146;53.448;10.228;2023-07-29T00:03:50;5.50;;;5.10;;
317;SDS011;146;53.448;10.228;2023-07-29T00:06:25;6.50;;;5.40;;
317;SDS011;146;53.448;10.228;2023-07-29T00:08:59;6.90;;;6.40;;
317;SDS011;146;53.448;10.228;2023-07-29T00:11:29;5.53;;;5.13;;
317;SDS011;146;53.448;10.228;2023-07-29T00:13:57;6.13;;;5.70;;
317;SDS011;146;53.448;10.228;2023-07-29T00:16:33;6.47;;;5.97;;
317;SDS011;146;53.448;10.228;2023-07-29T00:19:03;6.40;;;5.90;;
317;SDS011;146;53.448;10.228;2023-07-29T00:21:33;6.50;;;6.00;;
317;SDS011;146;53.448;10.228;2023-07-29T00:24:04;7.40;;;6.80;;
317;SDS011;146;53.448;10.228;2023-07-29T00:26:30;8.43;;;7.63;;
317;SDS011;146;53.448;10.228;2023-07-29T00:28:57;7.53;;;6.93;;
317;SDS011;146;53.448;10.228;2023-07-29T00:31:24;9.30;;;8.57;;
317;SDS011;146;53.448;10.228;2023-07-29T00:33:57;7.77;;;7.17;;
317;SDS011;146;53.448;10.228;2023-07-29T00:36:24;7.60;;;7.10;;
317;SDS011;146;53.448;10.228;2023-07-29T00:39:00;7.60;;;6.90;;
317;SDS011;146;53.448;10.228;2023-07-29T00:41:28;8.70;;;7.80;;
317;SDS011;146;53.448;10.228;2023-07-29T00:43:57;7.40;;;6.70;;
317;SDS011;146;53.448;10.228;2023-07-29T00:46:33;8.60;;;7.90;;
317;SDS011;146;53.448;10.228;2023-07-29T00:49:02;8.50;;;7.70;;
317;SDS011;146;53.448;10.228;2023-07-29T00:51:29;7.90;;;7.20;;
317;SDS011;146;53.448;10.228;2023-07-29T00:53:58;9.10;;;8.30;;
317;SDS011;146;53.448;10.228;2023-07-29T00:56:40;8.37;;;7.77;;
317;SDS011;146;53.448;10.228;2023-07-29T00:59:13;8.13;;;7.53;;
317;SDS011;146;53.448;10.228;2023-07-29T01:01:43;9.13;;;8.40;;
317;SDS011;146;53.448;10.228;2023-07-29T01:04:17;8.17;;;7.50;;
317;SDS011;146;53.448;10.228;2023-07-29T01:06:53;8.50;;;7.80;;
317;SDS011;146;53.448;10.228;2023-07-29T01:09:46;8.50;;;7.90;;
317;SDS011;146;53.448;10.228;2023-07-29T01:12:29;8.33;;;7.57;;
317;SDS011;146;53.448;10.228;2023-07-29T01:15:08;8.63;;;7.90;;
317;SDS011;146;53.448;10.228;2023-07-29T01:17:40;9.07;;;8.37;;
317;SDS011;146;53.448;10.228;2023-07-29T01:20:10;9.50;;;8.80;;
317;SDS011;146;53.448;10.228;2023-07-29T01:22:40;9.20;;;8.50;;
317;SDS011;146;53.448;10.228;2023-07-29T01:46:35;8.60;;;7.97;;
317;SDS011;146;53.448;10.228;2023-07-29T01:49:03;8.63;;;7.97;;
317;SDS011;146;53.448;10.228;2023-07-29T01:51:30;9.43;;;8.63;;
317;SDS011;146;53.448;10.228;2023-07-29T01:54:00;9.53;;;8.70;;
317;SDS011;146;53.448;10.228;2023-07-29T01:56:29;10.17;;;9.33;;
317;SDS011;146;53.448;10.228;2023-07-29T01:58:59;9.10;;;8.37;;
317;SDS011;146;53.448;10.228;2023-07-29T02:01:26;8.73;;;8.03;;
317;SDS011;146;53.448;10.228;2023-07-29T02:03:57;10.33;;;9.30;;
317;SDS011;146;53.448;10.228;2023-07-29T02:06:27;10.53;;;9.63;;
317;SDS011;146;53.448;10.228;2023-07-29T02:08:56;8.80;;;8.00;;
317;SDS011;146;53.448;10.228;2023-07-29T02:11:39;10.43;;;9.60;;
317;SDS011;146;53.448;10.228;2023-07-29T02:14:09;10.20;;;9.30;;
317;SDS011;146;53.448;10.228;2023-07-29T02:16:41;9.40;;;8.60;;
317;SDS011;146;53.448;10.228;2023-07-29T02:19:09;9.03;;;8.23;;
317;SDS011;146;53.448;10.228;2023-07-29T02:21:45;9.13;;;8.43;;
317;SDS011;146;53.448;10.228;2023-07-29T02:24:11;8.70;;;8.00;;
317;SDS011;146;53.448;10.228;2023-07-29T02:26:41;10.20;;;9.40;;
317;SDS011;146;53.448;10.228;2023-07-29T02:29:17;9.73;;;8.93;;
317;SDS011;146;53.448;10.228;2023-07-29T02:31:44;10.97;;;9.97;;
317;SDS011;146;53.448;10.228;2023-07-29T02:34:24;9.07;;;8.40;;
317;SDS011;146;53.448;10.228;2023-07-29T02:36:51;11.10;;;10.10;;
317;SDS011;146;53.448;10.228;2023-07-29T02:39:21;11.10;;;10.20;;
317;SDS011;146;53.448;10.228;2023-07-29T02:41:57;9.63;;;8.73;;
317;SDS011;146;53.448;10.228;2023-07-29T02:44:27;10.40;;;9.40;;
317;SDS011;146;53.448;10.228;2023-07-29T02:46:54;10.53;;;9.53;;
317;SDS011;146;53.448;10.228;2023-07-29T02:49:28;10.50;;;9.60;;
317;SDS011;146;53.448;10.228;2023-07-29T02:51:55;11.57;;;10.57;;
317;SDS011;146;53.448;10.228;2023-07-29T02:54:39;9.23;;;8.43;;
317;SDS011;146;53.448;10.228;2023-07-29T02:57:24;9.60;;;8.80;;
317;SDS011;146;53.448;10.228;2023-07-29T02:59:51;10.13;;;9.17;;
317;SDS011;146;53.448;10.228;2023-07-29T03:02:17;10.80;;;9.73;;
317;SDS011;146;53.448;10.228;2023-07-29T03:05:01;10.13;;;9.27;;
317;SDS011;146;53.448;10.228;2023-07-29T03:07:28;9.60;;;8.90;;
317;SDS011;146;53.448;10.228;2023-07-29T03:10:00;10.30;;;9.40;;
317;SDS011;146;53.448;10.228;2023-07-29T03:12:27;10.13;;;9.23;;
317;SDS011;146;53.448;10.228;2023-07-29T03:14:54;9.23;;;8.53;;
317;SDS011;146;53.448;10.228;2023-07-29T03:17:26;10.13;;;9.30;;
317;SDS011;146;53.448;10.228;2023-07-29T03:19:54;10.17;;;9.07;;
317;SDS011;146;53.448;10.228;2023-07-29T03:22:25;9.40;;;8.70;;
317;SDS011;146;53.448;10.228;2023-07-29T03:24:52;10.13;;;9.33;;
317;SDS011;146;53.448;10.228;2023-07-29T03:27:21;10.00;;;8.83;;
317;SDS011;146;53.448;10.228;2023-07-29T03:29:57;9.90;;;9.10;;
317;SDS011;146;53.448;10.228;2023-07-29T03:32:27;9.60;;;8.70;;
317;SDS011;146;53.448;10.228;2023-07-29T03:34:54;10.23;;;9.23;;
317;SDS011;146;53.448;10.228;2023-07-29T03:37:25;9.60;;;8.90;;
317;SDS011;146;53.448;10.228;2023-07-29T03:39:53;10.20;;;9.20;;
317;SDS011;146;53.448;10.228;2023-07-29T03:42:22;10.97;;;9.40;;
317;SDS011;146;53.448;10.228;2023-07-29T03:44:50;10.83;;;9.73;;
317;SDS011;146;53.448;10.228;2023-07-29T03:47:16;11.00;;;10.20;;
317;SDS011;146;53.448;10.228;2023-07-29T03:49:46;10.57;;;9.67;;
317;SDS011;146;53.448;10.228;2023-07-29T03:52:14;10.20;;;9.30;;
317;SDS011;146;53.448;10.228;2023-07-29T03:54:52;10.57;;;9.63;;
317;SDS011;146;53.448;10.228;2023-07-29T03:57:27;10.37;;;9.47;;
317;SDS011;146;53.448;10.228;2023-07-29T03:59:55;9.20;;;8.50;;
317;SDS011;146;53.448;10.228;2023-07-29T04:02:27;9.57;;;8.67;;
317;SDS011;146;53.448;10.228;2023-07-29T04:04:59;11.50;;;10.30;;
317;SDS011;146;53.448;10.228;2023-07-29T04:07:31;11.23;;;10.23;;
317;SDS011;146;53.448;10.228;2023-07-29T04:10:03;10.70;;;9.90;;
317;SDS011;146;53.448;10.228;2023-07-29T04:12:31;10.90;;;10.00;;
317;SDS011;146;53.448;10.228;2023-07-29T04:15:05;9.60;;;8.80;;
317;SDS011;146;53.448;10.228;2023-07-29T04:17:35;10.83;;;9.90;;
317;SDS011;146;53.448;10.228;2023-07-29T04:20:11;10.70;;;9.80;;
317;SDS011;146;53.448;10.228;2023-07-29T04:22:38;11.03;;;10.00;;
317;SDS011;146;53.448;10.228;2023-07-29T04:25:16;11.90;;;11.00;;
317;SDS011;146;53.448;10.228;2023-07-29T04:27:46;10.57;;;9.77;;
317;SDS011;146;53.448;10.228;2023-07-29T04:30:16;12.27;;;11.27;;
317;SDS011;146;53.448;10.228;2023-07-29T04:32:48;12.43;;;11.20;;
317;SDS011;146;53.448;10.228;2023-07-29T04:35:15;11.23;;;10.23;;
317;SDS011;146;53.448;10.228;2023-07-29T04:37:45;12.00;;;10.90;;
317;SDS011;146;53.448;10.228;2023-07-29T04:40:18;12.60;;;11.50;;
317;SDS011;146;53.448;10.228;2023-07-29T04:42:45;12.23;;;11.13;;
317;SDS011;146;53.448;10.228;2023-07-29T04:45:15;14.67;;;13.37;;
317;SDS011;146;53.448;10.228;2023-07-29T04:47:50;13.97;;;12.70;;
317;SDS011;146;53.448;10.228;2023-07-29T04:50:16;13.60;;;12.40;;
317;SDS011;146;53.448;10.228;2023-07-29T04:52:46;13.20;;;12.10;;
317;SDS011;146;53.448;10.228;2023-07-29T04:55:16;14.00;;;12.90;;
317;SDS011;146;53.448;10.228;2023-07-29T05:00:38;16.10;;;14.70;;
317;SDS011;146;53.448;10.228;2023-07-29T05:03:05;14.17;;;12.90;;
317;SDS011;146;53.448;10.228;2023-07-29T05:05:35;16.07;;;14.13;;
317;SDS011;146;53.448;10.228;2023-07-29T05:08:09;16.03;;;14.57;;
317;SDS011;146;53.448;10.228;2023-07-29T05:10:42;17.50;;;15.80;;
317;SDS011;146;53.448;10.228;2023-07-29T05:13:14;17.57;;;15.97;;
317;SDS011;146;53.448;10.228;2023-07-29T05:15:48;16.87;;;15.27;;
317;SDS011;146;53.448;10.228;2023-07-29T05:18:22;18.90;;;17.00;;
317;SDS011;146;53.448;10.228;2023-07-29T05:20:49;17.47;;;15.83;;
317;SDS011;146;53.448;10.228;2023-07-29T05:23:22;18.37;;;16.57;;
317;SDS011;146;53.448;10.228;2023-07-29T05:25:53;18.00;;;16.10;;
317;SDS011;146;53.448;10.228;2023-07-29T05:28:20;18.70;;;17.00;;
317;SDS011;146;53.448;10.228;2023-07-29T05:31:00;17.10;;;15.50;;
317;SDS011;146;53.448;10.228;2023-07-29T05:33:48;19.63;;;17.60;;
317;SDS011;146;53.448;10.228;2023-07-29T05:36:15;18.40;;;16.70;;
317;SDS011;146;53.448;10.228;2023-07-29T05:38:44;20.03;;;18.13;;
317;SDS011;146;53.448;10.228;2023-07-29T05:41:15;19.50;;;17.70;;
317;SDS011;146;53.448;10.228;2023-07-29T05:43:42;20.17;;;18.30;;
317;SDS011;146;53.448;10.228;2023-07-29T05:46:12;21.33;;;19.30;;
317;SDS011;146;53.448;10.228;2023-07-29T05:48:39;19.90;;;18.00;;
317;SDS011;146;53.448;10.228;2023-07-29T05:51:06;20.70;;;18.70;;
317;SDS011;146;53.448;10.228;2023-07-29T05:53:32;20.20;;;18.10;;
317;SDS011;146;53.448;10.228;2023-07-29T05:55:59;19.80;;;17.90;;
317;SDS011;146;53.448;10.228;2023-07-29T05:58:27;20.77;;;18.77;;
317;SDS011;146;53.448;10.228;2023-07-29T06:00:56;21.50;;;19.30;;
317;SDS011;146;53.448;10.228;2023-07-29T06:03:23;20.97;;;18.77;;
317;SDS011;146;53.448;10.228;2023-07-29T06:05:59;21.53;;;19.00;;
317;SDS011;146;53.448;10.228;2023-07-29T06:08:26;20.23;;;18.23;;
317;SDS011;146;53.448;10.228;2023-07-29T06:10:53;21.93;;;18.97;;
317;SDS011;146;53.448;10.228;2023-07-29T06:13:22;21.13;;;19.23;;
317;SDS011;146;53.448;10.228;2023-07-29T06:15:50;20.20;;;17.03;;
317;SDS011;146;53.448;10.228;2023-07-29T06:18:17;17.77;;;16.13;;
317;SDS011;146;53.448;10.228;2023-07-29T06:20:44;18.03;;;16.40;;
317;SDS011;146;53.448;10.228;2023-07-29T06:23:17;17.67;;;15.97;;
317;SDS011;146;53.448;10.228;2023-07-29T06:25:47;16.33;;;14.93;;
317;SDS011;146;53.448;10.228;2023-07-29T06:28:14;18.07;;;16.17;;
317;SDS011;146;53.448;10.228;2023-07-29T06:30:43;16.83;;;15.23;;
317;SDS011;146;53.448;10.228;2023-07-29T06:33:11;16.97;;;15.43;;
317;SDS011;146;53.448;10.228;2023-07-29T06:35:38;17.60;;;16.00;;
317;SDS011;146;53.448;10.228;2023-07-29T06:38:05;15.60;;;14.20;;
317;SDS011;146;53.448;10.228;2023-07-29T06:40:35;16.87;;;15.30;;
317;SDS011;146;53.448;10.228;2023-07-29T06:43:02;17.93;;;16.33;;
317;SDS011;146;53.448;10.228;2023-07-29T06:45:28;17.67;;;16.00;;
317;SDS011;146;53.448;10.228;2023-07-29T06:47:55;17.27;;;15.67;;
317;SDS011;146;53.448;10.228;2023-07-29T06:50:24;16.37;;;14.97;;
317;SDS011;146;53.448;10.228;2023-07-29T06:52:50;17.10;;;15.53;;
317;SDS011;146;53.448;10.228;2023-07-29T06:55:23;18.30;;;16.60;;
317;SDS011;146;53.448;10.228;2023-07-29T06:57:55;18.30;;;16.60;;
317;SDS011;146;53.448;10.228;2023-07-29T07:00:31;17.83;;;16.17;;
317;SDS011;146;53.448;10.228;2023-07-29T07:03:00;16.87;;;15.33;;
317;SDS011;146;53.448;10.228;2023-07-29T07:05:31;16.90;;;15.50;;
317;SDS011;146;53.448;10.228;2023-07-29T07:07:58;16.73;;;15.33;;
317;SDS011;146;53.448;10.228;2023-07-29T07:10:28;16.17;;;14.63;;
317;SDS011;146;53.448;10.228;2023-07-29T07:12:58;16.90;;;15.30;;
317;SDS011;146;53.448;10.228;2023-07-29T07:15:28;14.27;;;13.07;;
317;SDS011;146;53.448;10.228;2023-07-29T07:17:54;15.33;;;14.00;;
317;SDS011;146;53.448;10.228;2023-07-29T07:20:43;15.90;;;14.53;;
317;SDS011;146;53.448;10.228;2023-07-29T07:23:14;14.80;;;13.53;;
317;SDS011;146;53.448;10.228;2023-07-29T07:25:41;14.23;;;13.00;;
317;SDS011;146;53.448;10.228;2023-07-29T07:28:10;12.70;;;11.57;;
317;SDS011;146;53.448;10.228;2023-07-29T07:30:40;14.83;;;13.43;;
317;SDS011;146;53.448;10.228;2023-07-29T07:33:13;13.77;;;12.67;;
317;SDS011;146;53.448;10.228;2023-07-29T07:35:49;13.70;;;12.50;;
317;SDS011;146;53.448;10.228;2023-07-29T07:38:21;13.87;;;12.67;;
317;SDS011;146;53.448;10.228;2023-07-29T07:41:01;14.60;;;13.30;;
317;SDS011;146;53.448;10.228;2023-07-29T07:43:31;12.70;;;11.50;;
317;SDS011;146;53.448;10.228;2023-07-29T07:46:08;10.87;;;10.07;;
317;SDS011;146;53.448;10.228;2023-07-29T07:48:35;12.20;;;11.20;;
317;SDS011;146;53.448;10.228;2023-07-29T07:51:12;12.50;;;11.17;;
317;SDS011;146;53.448;10.228;2023-07-29T07:53:46;12.67;;;11.57;;
317;SDS011;146;53.448;10.228;2023-07-29T07:56:19;12.87;;;11.80;;
317;SDS011;146;53.448;10.228;2023-07-29T07:58:46;13.13;;;11.93;;
317;SDS011;146;53.448;10.228;2023-07-29T08:01:17;13.47;;;12.23;;
317;SDS011;146;53.448;10.228;2023-07-29T08:03:53;12.27;;;11.27;;
317;SDS011;146;53.448;10.228;2023-07-29T08:06:21;12.73;;;11.60;;
317;SDS011;146;53.448;10.228;2023-07-29T08:08:48;12.30;;;11.20;;
317;SDS011;146;53.448;10.228;2023-07-29T08:11:20;12.07;;;11.13;;
317;SDS011;146;53.448;10.228;2023-07-29T08:13:50;13.10;;;12.00;;
317;SDS011;146;53.448;10.228;2023-07-29T08:16:23;10.33;;;9.53;;
317;SDS011;146;53.448;10.228;2023-07-29T08:18:53;10.00;;;9.30;;
317;SDS011;146;53.448;10.228;2023-07-29T08:21:28;9.43;;;8.70;;
317;SDS011;146;53.448;10.228;2023-07-29T08:24:07;10.57;;;9.77;;
317;SDS011;146;53.448;10.228;2023-07-29T08:26:34;11.13;;;10.13;;
317;SDS011;146;53.448;10.228;2023-07-29T08:29:01;10.60;;;9.70;;
317;SDS011;146;53.448;10.228;2023-07-29T08:31:28;8.50;;;7.97;;
317;SDS011;146;53.448;10.228;2023-07-29T08:34:04;8.23;;;7.63;;
317;SDS011;146;53.448;10.228;2023-07-29T08:36:45;8.47;;;7.77;;
317;SDS011;146;53.448;10.228;2023-07-29T08:39:12;9.37;;;8.67;;
317;SDS011;146;53.448;10.228;2023-07-29T08:41:41;9.00;;;8.40;;
317;SDS011;146;53.448;10.228;2023-07-29T08:44:20;7.73;;;7.23;;
317;SDS011;146;53.448;10.228;2023-07-29T08:46:54;9.23;;;8.27;;
317;SDS011;146;53.448;10.228;2023-07-29T08:49:22;7.77;;;7.00;;
317;SDS011;146;53.448;10.228;2023-07-29T08:51:54;8.87;;;8.20;;
317;SDS011;146;53.448;10.228;2023-07-29T08:54:23;8.70;;;7.90;;
317;SDS011;146;53.448;10.228;2023-07-29T08:56:56;9.07;;;8.37;;
317;SDS011;146;53.448;10.228;2023-07-29T08:59:30;8.70;;;8.10;;
317;SDS011;146;53.448;10.228;2023-07-29T09:01:57;9.80;;;9.10;;
317;SDS011;146;53.448;10.228;2023-07-29T09:04:25;9.87;;;9.20;;
317;SDS011;146;53.448;10.228;2023-07-29T09:07:00;10.03;;;9.27;;
317;SDS011;146;53.448;10.228;2023-07-29T09:09:27;9.43;;;8.63;;
317;SDS011;146;53.448;10.228;2023-07-29T09:12:02;9.10;;;8.40;;
317;SDS011;146;53.448;10.228;2023-07-29T09:14:29;9.83;;;9.03;;
317;SDS011;146;53.448;10.228;2023-07-29T09:16:59;9.33;;;8.47;;
317;SDS011;146;53.448;10.228;2023-07-29T09:19:32;10.07;;;9.27;;
317;SDS011;146;53.448;10.228;2023-07-29T09:22:00;8.20;;;7.60;;
317;SDS011;146;53.448;10.228;2023-07-29T09:24:28;10.20;;;9.30;;
317;SDS011;146;53.448;10.228;2023-07-29T09:26:57;9.57;;;8.87;;
317;SDS011;146;53.448;10.228;2023-07-29T09:29:27;9.57;;;8.83;;
317;SDS011;146;53.448;10.228;2023-07-29T09:34:46;10.50;;;9.70;;
317;SDS011;146;53.448;10.228;2023-07-29T09:37:17;9.27;;;8.57;;
317;SDS011;146;53.448;10.228;2023-07-29T09:39:47;9.27;;;8.57;;
317;SDS011;146;53.448;10.228;2023-07-29T09:42:18;9.67;;;8.83;;
317;SDS011;146;53.448;10.228;2023-07-29T09:44:49;10.50;;;9.60;;
317;SDS011;146;53.448;10.228;2023-07-29T09:47:19;9.70;;;9.00;;
317;SDS011;146;53.448;10.228;2023-07-29T09:49:47;9.40;;;8.70;;
317;SDS011;146;53.448;10.228;2023-07-29T09:52:14;9.60;;;8.80;;
317;SDS011;146;53.448;10.228;2023-07-29T09:54:46;9.40;;;8.63;;
317;SDS011;146;53.448;10.228;2023-07-29T09:57:17;9.27;;;8.53;;
317;SDS011;146;53.448;10.228;2023-07-29T09:59:53;8.40;;;7.70;;
317;SDS011;146;53.448;10.228;2023-07-29T10:02:23;8.20;;;7.50;;
317;SDS011;146;53.448;10.228;2023-07-29T10:04:53;7.93;;;7.37;;
317;SDS011;146;53.448;10.228;2023-07-29T10:07:22;8.57;;;7.87;;
317;SDS011;146;53.448;10.228;2023-07-29T10:09:53;9.50;;;8.60;;
317;SDS011;146;53.448;10.228;2023-07-29T10:12:28;8.50;;;7.90;;
317;SDS011;146;53.448;10.228;2023-07-29T10:14:58;9.23;;;8.53;;
317;SDS011;146;53.448;10.228;2023-07-29T10:17:33;8.13;;;7.53;;
317;SDS011;146;53.448;10.228;2023-07-29T10:20:07;8.77;;;8.07;;
317;SDS011;146;53.448;10.228;2023-07-29T10:25:24;32.87;;;29.37;;
317;SDS011;146;53.448;10.228;2023-07-29T10:28:04;8.90;;;8.20;;
317;SDS011;146;53.448;10.228;2023-07-29T10:30:32;8.97;;;8.33;;
317;SDS011;146;53.448;10.228;2023-07-29T10:33:01;8.40;;;7.70;;
317;SDS011;146;53.448;10.228;2023-07-29T10:35:29;7.30;;;6.80;;
317;SDS011;146;53.448;10.228;2023-07-29T10:37:56;7.43;;;6.93;;
317;SDS011;146;53.448;10.228;2023-07-29T10:40:25;6.57;;;6.07;;
317;SDS011;146;53.448;10.228;2023-07-29T10:43:10;7.70;;;7.13;;
317;SDS011;146;53.448;10.228;2023-07-29T10:45:37;7.53;;;7.03;;
317;SDS011;146;53.448;10.228;2023-07-29T10:48:39;7.80;;;7.10;;
317;SDS011;146;53.448;10.228;2023-07-29T10:53:52;6.33;;;5.93;;
317;SDS011;146;53.448;10.228;2023-07-29T10:56:25;5.83;;;5.43;;
317;SDS011;146;53.448;10.228;2023-07-29T10:58:54;7.23;;;6.67;;
317;SDS011;146;53.448;10.228;2023-07-29T11:01:29;6.27;;;5.87;;
317;SDS011;146;53.448;10.228;2023-07-29T11:09:55;6.10;;;5.70;;
317;SDS011;146;53.448;10.228;2023-07-29T11:12:37;6.10;;;5.53;;
317;SDS011;146;53.448;10.228;2023-07-29T11:15:18;5.67;;;5.27;;
317;SDS011;146;53.448;10.228;2023-07-29T11:17:47;5.23;;;4.93;;
317;SDS011;146;53.448;10.228;2023-07-29T11:20:16;6.47;;;5.97;;
317;SDS011;146;53.448;10.228;2023-07-29T11:22:44;6.50;;;6.00;;
317;SDS011;146;53.448;10.228;2023-07-29T11:25:12;5.50;;;5.00;;
317;SDS011;146;53.448;10.228;2023-07-29T11:27:41;6.03;;;5.63;;
317;SDS011;146;53.448;10.228;2023-07-29T11:30:09;5.33;;;4.93;;
317;SDS011;146;53.448;10.228;2023-07-29T11:32:37;5.73;;;5.33;;
317;SDS011;146;53.448;10.228;2023-07-29T11:35:06;5.53;;;5.03;;
317;SDS011;146;53.448;10.228;2023-07-29T11:37:37;5.03;;;4.73;;
317;SDS011;146;53.448;10.228;2023-07-29T11:40:05;5.40;;;5.00;;
317;SDS011;146;53.448;10.228;2023-07-29T11:42:35;4.67;;;4.27;;
317;SDS011;146;53.448;10.228;2023-07-29T11:45:06;5.23;;;4.93;;
317;SDS011;146;53.448;10.228;2023-07-29T11:47:34;4.73;;;4.43;;
317;SDS011;146;53.448;10.228;2023-07-29T11:50:02;5.07;;;4.67;;
317;SDS011;146;53.448;10.228;2023-07-29T11:52:31;4.17;;;3.87;;
317;SDS011;146;53.448;10.228;2023-07-29T11:55:00;4.40;;;4.10;;
317;SDS011;146;53.448;10.228;2023-07-29T11:57:28;3.67;;;3.47;;
317;SDS011;146;53.448;10.228;2023-07-29T11:59:55;4.37;;;4.07;;
317;SDS011;146;53.448;10.228;2023-07-29T12:02:27;4.50;;;4.20;;
317;SDS011;146;53.448;10.228;2023-07-29T12:04:54;4.27;;;4.03;;
317;SDS011;146;53.448;10.228;2023-07-29T12:07:22;4.97;;;4.50;;
317;SDS011;146;53.448;10.228;2023-07-29T12:09:49;5.13;;;4.83;;
317;SDS011;146;53.448;10.228;2023-07-29T12:12:17;5.60;;;5.20;;
317;SDS011;146;53.448;10.228;2023-07-29T12:14:44;4.77;;;4.37;;
317;SDS011;146;53.448;10.228;2023-07-29T12:17:15;5.17;;;4.77;;
317;SDS011;146;53.448;10.228;2023-07-29T12:19:43;4.83;;;4.53;;
317;SDS011;146;53.448;10.228;2023-07-29T12:22:10;5.70;;;5.30;;
317;SDS011;146;53.448;10.228;2023-07-29T12:24:47;6.53;;;5.43;;
317;SDS011;146;53.448;10.228;2023-07-29T12:27:17;6.10;;;5.70;;
317;SDS011;146;53.448;10.228;2023-07-29T12:29:51;7.13;;;6.07;;
317;SDS011;146;53.448;10.228;2023-07-29T12:32:31;5.80;;;5.40;;
317;SDS011;146;53.448;10.228;2023-07-29T12:35:13;5.30;;;4.77;;
317;SDS011;146;53.448;10.228;2023-07-29T12:37:40;5.70;;;5.30;;
317;SDS011;146;53.448;10.228;2023-07-29T12:40:20;4.57;;;4.27;;
317;SDS011;146;53.448;10.228;2023-07-29T12:42:49;5.07;;;4.63;;
317;SDS011;146;53.448;10.228;2023-07-29T12:45:16;4.43;;;4.13;;
317;SDS011;146;53.448;10.228;2023-07-29T12:47:43;5.03;;;4.73;;
317;SDS011;146;53.448;10.228;2023-07-29T12:50:23;4.20;;;3.90;;
317;SDS011;146;53.448;10.228;2023-07-29T12:52:50;4.33;;;3.97;;
317;SDS011;146;53.448;10.228;2023-07-29T12:55:17;3.87;;;3.67;;
317;SDS011;146;53.448;10.228;2023-07-29T12:57:46;4.33;;;4.03;;
317;SDS011;146;53.448;10.228;2023-07-29T13:00:16;4.53;;;4.13;;
317;SDS011;146;53.448;10.228;2023-07-29T13:02:44;4.10;;;3.70;;
317;SDS011;146;53.448;10.228;2023-07-29T13:05:16;3.90;;;3.60;;
317;SDS011;146;53.448;10.228;2023-07-29T13:07:47;3.50;;;3.30;;
317;SDS011;146;53.448;10.228;2023-07-29T13:10:17;4.00;;;3.70;;
317;SDS011;146;53.448;10.228;2023-07-29T13:12:44;5.40;;;5.00;;
317;SDS011;146;53.448;10.228;2023-07-29T13:15:25;5.87;;;5.47;;
317;SDS011;146;53.448;10.228;2023-07-29T13:17:52;3.83;;;3.53;;
317;SDS011;146;53.448;10.228;2023-07-29T13:20:21;3.00;;;2.80;;
317;SDS011;146;53.448;10.228;2023-07-29T13:22:55;4.67;;;4.37;;
317;SDS011;146;53.448;10.228;2023-07-29T13:25:25;3.37;;;3.17;;
317;SDS011;146;53.448;10.228;2023-07-29T13:27:52;3.60;;;3.30;;
317;SDS011;146;53.448;10.228;2023-07-29T13:30:22;5.40;;;2.93;;
317;SDS011;146;53.448;10.228;2023-07-29T13:32:51;3.60;;;3.30;;
317;SDS011;146;53.448;10.228;2023-07-29T13:35:21;3.57;;;3.33;;
317;SDS011;146;53.448;10.228;2023-07-29T13:37:51;2.87;;;2.77;;
317;SDS011;146;53.448;10.228;2023-07-29T13:40:19;3.73;;;3.43;;
317;SDS011;146;53.448;10.228;2023-07-29T13:42:49;3.13;;;3.03;;
317;SDS011;146;53.448;10.228;2023-07-29T13:45:16;3.40;;;3.20;;
317;SDS011;146;53.448;10.228;2023-07-29T13:47:44;3.90;;;3.60;;
317;SDS011;146;53.448;10.228;2023-07-29T13:50:15;3.60;;;3.40;;
317;SDS011;146;53.448;10.228;2023-07-29T13:52:42;3.40;;;3.20;;
317;SDS011;146;53.448;10.228;2023-07-29T13:55:09;3.47;;;3.30;;
317;SDS011;146;53.448;10.228;2023-07-29T13:57:40;3.80;;;3.50;;
317;SDS011;146;53.448;10.228;2023-07-29T14:00:07;3.70;;;3.50;;
317;SDS011;146;53.448;10.228;2023-07-29T14:02:34;3.93;;;3.60;;
317;SDS011;146;53.448;10.228;2023-07-29T14:05:01;4.33;;;4.10;;
317;SDS011;146;53.448;10.228;2023-07-29T14:07:28;3.73;;;3.53;;
317;SDS011;146;53.448;10.228;2023-07-29T14:10:08;4.23;;;3.93;;
317;SDS011;146;53.448;10.228;2023-07-29T14:12:35;5.10;;;3.87;;
317;SDS011;146;53.448;10.228;2023-07-29T14:15:05;4.40;;;4.10;;
317;SDS011;146;53.448;10.228;2023-07-29T14:17:33;2.93;;;2.83;;
317;SDS011;146;53.448;10.228;2023-07-29T14:20:03;4.13;;;3.83;;
317;SDS011;146;53.448;10.228;2023-07-29T14:22:30;3.37;;;3.17;;
317;SDS011;146;53.448;10.228;2023-07-29T14:25:03;3.53;;;3.33;;
317;SDS011;146;53.448;10.228;2023-07-29T14:27:31;3.87;;;3.67;;
317;SDS011;146;53.448;10.228;2023-07-29T14:29:57;3.33;;;3.13;;
317;SDS011;146;53.448;10.228;2023-07-29T14:32:28;3.33;;;3.13;;
317;SDS011;146;53.448;10.228;2023-07-29T14:34:56;5.40;;;3.77;;
317;SDS011;146;53.448;10.228;2023-07-29T14:37:29;3.60;;;3.40;;
317;SDS011;146;53.448;10.228;2023-07-29T14:40:06;4.10;;;3.80;;
317;SDS011;146;53.448;10.228;2023-07-29T14:42:39;4.10;;;3.80;;
317;SDS011;146;53.448;10.228;2023-07-29T14:45:10;3.03;;;2.83;;
317;SDS011;146;53.448;10.228;2023-07-29T14:47:38;3.60;;;2.90;;
317;SDS011;146;53.448;10.228;2023-07-29T14:50:22;3.40;;;3.20;;
317;SDS011;146;53.448;10.228;2023-07-29T14:52:49;2.50;;;2.40;;
317;SDS011;146;53.448;10.228;2023-07-29T14:55:19;3.33;;;3.13;;
317;SDS011;146;53.448;10.228;2023-07-29T14:58:03;3.07;;;2.87;;
317;SDS011;146;53.448;10.228;2023-07-29T15:00:46;2.60;;;2.50;;
317;SDS011;146;53.448;10.228;2023-07-29T15:03:15;2.20;;;2.10;;
317;SDS011;146;53.448;10.228;2023-07-29T15:05:42;2.67;;;2.47;;
317;SDS011;146;53.448;10.228;2023-07-29T15:08:09;2.40;;;2.30;;
317;SDS011;146;53.448;10.228;2023-07-29T15:10:44;3.67;;;2.80;;
317;SDS011;146;53.448;10.228;2023-07-29T15:13:11;2.23;;;2.13;;
317;SDS011;146;53.448;10.228;2023-07-29T15:15:41;3.30;;;3.10;;
317;SDS011;146;53.448;10.228;2023-07-29T15:18:12;2.70;;;2.60;;
317;SDS011;146;53.448;10.228;2023-07-29T15:20:46;2.90;;;2.70;;
317;SDS011;146;53.448;10.228;2023-07-29T15:23:22;2.10;;;2.00;;
317;SDS011;146;53.448;10.228;2023-07-29T15:25:49;2.63;;;2.43;;
317;SDS011;146;53.448;10.228;2023-07-29T15:28:16;2.43;;;2.23;;
317;SDS011;146;53.448;10.228;2023-07-29T15:30:43;2.07;;;1.97;;
317;SDS011;146;53.448;10.228;2023-07-29T15:33:09;3.23;;;2.57;;
317;SDS011;146;53.448;10.228;2023-07-29T15:35:40;2.40;;;2.30;;
317;SDS011;146;53.448;10.228;2023-07-29T15:38:13;4.07;;;2.40;;
317;SDS011;146;53.448;10.228;2023-07-29T15:40:40;3.13;;;2.73;;
317;SDS011;146;53.448;10.228;2023-07-29T15:43:06;2.43;;;2.33;;
317;SDS011;146;53.448;10.228;2023-07-29T15:45:33;2.20;;;2.00;;
317;SDS011;146;53.448;10.228;2023-07-29T15:48:00;2.13;;;2.03;;
317;SDS011;146;53.448;10.228;2023-07-29T15:50:33;2.93;;;2.73;;
317;SDS011;146;53.448;10.228;2023-07-29T15:53:00;2.93;;;2.73;;
317;SDS011;146;53.448;10.228;2023-07-29T15:55:32;4.10;;;2.90;;
317;SDS011;146;53.448;10.228;2023-07-29T15:57:59;2.50;;;2.30;;
317;SDS011;146;53.448;10.228;2023-07-29T16:00:29;2.60;;;2.40;;
317;SDS011;146;53.448;10.228;2023-07-29T16:02:56;2.30;;;2.17;;
317;SDS011;146;53.448;10.228;2023-07-29T16:05:25;2.90;;;2.70;;
317;SDS011;146;53.448;10.228;2023-07-29T16:07:58;3.13;;;2.80;;
317;SDS011;146;53.448;10.228;2023-07-29T16:10:25;2.80;;;2.60;;
317;SDS011;146;53.448;10.228;2023-07-29T16:12:59;4.40;;;2.93;;
317;SDS011;146;53.448;10.228;2023-07-29T16:15:31;2.20;;;2.10;;
317;SDS011;146;53.448;10.228;2023-07-29T16:17:58;3.27;;;2.50;;
317;SDS011;146;53.448;10.228;2023-07-29T16:20:44;2.60;;;2.40;;